»·PEaware :: UAL824 KLAX-KLAS

UAL824 :: KLAX-KLAS

FLIGHT INFORMATION

Flight Status: Arrived
Operator:
United Airlines
More flights by this operator :: More flights under this callsign
Pilot: Andrew S. (20703)
Aircraft: BOEING 737-800
(B738)
More flights by this aircraft type
Origin: KLAX Los Angeles Intl
United States
Destination: KLAS McCarran Intl
United States
More flights between these airports :: More routes between these airports
Route: ORCKA3 MISEN KEPEC6
File this flight plan on PilotEdge
Remarks: RMK / SIMBRIEF
Altitude:
(Current/Filed)
33,000ft
Speed:
(Current/Filed)
457kts
Departed: 28-Oct-19 06:36 PM
Arrived: 28-Oct-19 07:49 PM
Distance/Time
Traveled:
205nm/1:12
Distance/Time
To Go:
Arrived

Flight Plot

Page will automatically refresh every two minutes.

Flight plan parsing failed; only flown route is shown


Map Options




Map Legend


Flown Route
Filed Route
Departure Airport
Arrival Airport
Navaid (VOR, NDB)
Fix

Horizontal Profiles

Position Reports

Time Latitude Longitude Heading Altitude Ground
Speed
28-Oct-19 18:18 33.941576 -118.400192 95 122ft 0kts
28-Oct-19 18:19 33.941576 -118.400192 95 122ft 0kts
28-Oct-19 18:20 33.941576 -118.400192 95 122ft 0kts
28-Oct-19 18:21 33.941576 -118.400192 95 122ft 0kts
28-Oct-19 18:22 33.941585 -118.400318 95 122ft 2kts
28-Oct-19 18:23 33.941786 -118.400888 174 123ft 1kts
28-Oct-19 18:24 33.941850 -118.400891 174 123ft 0kts
28-Oct-19 18:25 33.941850 -118.400891 174 123ft 0kts
28-Oct-19 18:26 33.941850 -118.400891 174 123ft 0kts
28-Oct-19 18:27 33.941101 -118.400793 173 122ft 0kts
28-Oct-19 18:28 33.939067 -118.397370 82 116ft 25kts
28-Oct-19 18:29 33.940077 -118.387617 85 106ft 34kts
28-Oct-19 18:30 33.940794 -118.380651 83 103ft 0kts
28-Oct-19 18:31 33.940794 -118.380651 83 103ft 0kts
28-Oct-19 18:32 33.940794 -118.380651 83 103ft 0kts
28-Oct-19 18:33 33.940794 -118.380647 83 103ft 0kts
28-Oct-19 18:34 33.939830 -118.380528 262 102ft 16kts
28-Oct-19 18:35 33.934099 -118.427178 261 1568ft 185kts
28-Oct-19 18:36 33.945421 -118.498724 333 3634ft 264kts
28-Oct-19 18:37 33.996163 -118.452488 80 4295ft 262kts
28-Oct-19 18:46 33.941087 -118.380233 165 103ft 0kts
28-Oct-19 18:47 33.941087 -118.380233 165 103ft 0kts
28-Oct-19 18:48 33.941087 -118.380233 165 103ft 0kts
28-Oct-19 18:49 33.941087 -118.380233 165 103ft 0kts
28-Oct-19 18:50 33.941087 -118.380233 165 103ft 0kts
28-Oct-19 18:51 33.939808 -118.380518 266 102ft 12kts
28-Oct-19 18:52 33.935009 -118.418737 260 1389ft 163kts
28-Oct-19 18:53 33.918938 -118.469070 247 3725ft 179kts
28-Oct-19 18:54 33.897220 -118.527449 248 5011ft 205kts
28-Oct-19 18:55 33.868533 -118.605719 248 4998ft 268kts
28-Oct-19 18:56 33.822538 -118.667124 175 6281ft 282kts
28-Oct-19 18:57 33.798450 -118.593745 49 9384ft 291kts
28-Oct-19 18:58 33.859893 -118.519690 41 11712ft 332kts
28-Oct-19 18:59 33.927895 -118.439996 45 14531ft 350kts
28-Oct-19 19:00 33.984361 -118.342258 52 17086ft 368kts
28-Oct-19 19:01 34.043132 -118.238517 52 19425ft 384kts
28-Oct-19 19:02 34.105011 -118.129240 51 21578ft 399kts
28-Oct-19 19:03 34.169335 -118.015110 51 23509ft 415kts
28-Oct-19 19:04 34.235946 -117.896684 51 25374ft 428kts
28-Oct-19 19:05 34.304027 -117.775255 51 27126ft 439kts
28-Oct-19 19:06 34.374578 -117.651002 49 28678ft 449kts
28-Oct-19 19:07 34.449708 -117.525876 49 30097ft 461kts
28-Oct-19 19:08 34.526129 -117.397431 49 31591ft 468kts
28-Oct-19 19:09 34.602649 -117.268434 49 33013ft 470kts
28-Oct-19 19:10 34.680914 -117.135975 49 33071ft 484kts
28-Oct-19 19:11 34.759607 -117.002300 49 33073ft 487kts
28-Oct-19 19:12 34.838919 -116.867056 49 33068ft 489kts
28-Oct-19 19:13 34.919055 -116.729808 49 29998ft 484kts
28-Oct-19 19:14 34.990987 -116.601686 49 27746ft 428kts
28-Oct-19 19:15 35.059180 -116.480963 50 25518ft 433kts
28-Oct-19 19:16 35.130920 -116.368000 40 24091ft 407kts
28-Oct-19 19:17 35.211189 -116.267693 41 24073ft 413kts
28-Oct-19 19:18 35.291362 -116.166991 41 23707ft 400kts
28-Oct-19 19:19 35.368456 -116.069924 41 21233ft 394kts
28-Oct-19 19:20 35.444026 -115.974482 42 18961ft 382kts
28-Oct-19 19:21 35.517468 -115.881459 42 16721ft 371kts
28-Oct-19 19:22 35.588885 -115.790591 43 14510ft 361kts
28-Oct-19 19:23 35.655861 -115.705074 43 13318ft 324kts
28-Oct-19 19:24 35.716169 -115.628060 43 13031ft 307kts
28-Oct-19 19:25 35.788603 -115.576254 8 13032ft 298kts
28-Oct-19 19:26 35.871768 -115.569132 359 13022ft 297kts
28-Oct-19 19:27 35.952331 -115.544389 30 12997ft 305kts
28-Oct-19 19:28 36.003700 -115.460475 64 12970ft 312kts
28-Oct-19 19:29 36.027565 -115.358911 88 11053ft 304kts
28-Oct-19 19:30 36.022740 -115.258767 95 9711ft 274kts
28-Oct-19 19:31 36.016037 -115.165416 95 8625ft 269kts
28-Oct-19 19:32 36.010057 -115.076909 94 8028ft 243kts
28-Oct-19 19:33 36.005632 -115.001949 93 8006ft 238kts
28-Oct-19 19:34 36.000692 -114.919142 94 8001ft 236kts
28-Oct-19 19:35 35.995795 -114.838007 94 8001ft 236kts
28-Oct-19 19:36 35.990525 -114.757873 94 8001ft 236kts
28-Oct-19 19:37 35.985184 -114.676997 94 8001ft 236kts
28-Oct-19 19:38 36.007800 -114.607753 25 9160ft 212kts
28-Oct-19 19:39 36.063987 -114.630459 304 7444ft 234kts
28-Oct-19 19:40 36.069506 -114.696719 276 8146ft 197kts
28-Oct-19 19:41 36.073274 -114.761813 270 7913ft 190kts
28-Oct-19 19:42 36.073296 -114.826809 270 7005ft 198kts
28-Oct-19 19:43 36.073442 -114.895478 270 5853ft 188kts
28-Oct-19 19:44 36.073556 -114.956805 270 4866ft 168kts
28-Oct-19 19:45 36.073621 -115.013520 270 3936ft 154kts
28-Oct-19 19:46 36.073662 -115.065413 269 3118ft 149kts
28-Oct-19 19:47 36.073724 -115.115410 269 2314ft 144kts
28-Oct-19 19:49 36.074765 -115.146031 304 2121ft 19kts
28-Oct-19 19:50 36.074843 -115.146153 313 2121ft 0kts
28-Oct-19 19:51 36.075323 -115.146536 347 2121ft 19kts
28-Oct-19 19:52 36.079932 -115.147164 66 2121ft 0kts

Navigation Log

Ident Type
Flight plan parsing failed, navigation log unavailable